sensor_id;sensor_type;location;lat;lon;timestamp;pressure;altitude;pressure_sealevel;temperature;humidity
72465;BME280;60471;52.150;4.508;2024-03-02T00:01:11;99462.16;;;7.46;100.00
72465;BME280;60471;52.150;4.508;2024-03-02T00:03:38;99474.34;;;7.47;100.00
72465;BME280;60471;52.150;4.508;2024-03-02T00:06:04;99474.69;;;7.56;100.00
72465;BME280;60471;52.150;4.508;2024-03-02T00:08:30;99472.56;;;7.47;100.00
72465;BME280;60471;52.150;4.508;2024-03-02T00:10:58;99474.03;;;7.37;100.00
72465;BME280;60471;52.150;4.508;2024-03-02T00:13:26;99479.34;;;7.51;100.00
72465;BME280;60471;52.150;4.508;2024-03-02T00:15:54;99481.22;;;7.34;100.00
72465;BME280;60471;52.150;4.508;2024-03-02T00:20:55;99483.03;;;7.17;100.00
72465;BME280;60471;52.150;4.508;2024-03-02T00:23:23;99502.81;;;7.23;100.00
72465;BME280;60471;52.150;4.508;2024-03-02T00:25:52;99505.59;;;7.04;100.00
72465;BME280;60471;52.150;4.508;2024-03-02T00:30:59;99516.34;;;7.00;100.00
72465;BME280;60471;52.150;4.508;2024-03-02T00:33:36;99512.03;;;6.98;100.00
72465;BME280;60471;52.150;4.508;2024-03-02T00:36:06;99504.94;;;7.01;100.00
72465;BME280;60471;52.150;4.508;2024-03-02T00:38:34;99500.88;;;6.95;100.00
72465;BME280;60471;52.150;4.508;2024-03-02T00:41:27;99524.91;;;7.03;100.00
72465;BME280;60471;52.150;4.508;2024-03-02T00:44:05;99508.31;;;7.03;100.00
72465;BME280;60471;52.150;4.508;2024-03-02T00:46:40;99499.69;;;7.01;100.00
72465;BME280;60471;52.150;4.508;2024-03-02T00:49:21;99505.34;;;6.93;100.00
72465;BME280;60471;52.150;4.508;2024-03-02T00:51:51;99499.50;;;6.88;100.00
72465;BME280;60471;52.150;4.508;2024-03-02T00:54:20;99500.63;;;6.84;100.00
72465;BME280;60471;52.150;4.508;2024-03-02T00:56:50;99500.53;;;6.85;100.00
72465;BME280;60471;52.150;4.508;2024-03-02T00:59:17;99498.84;;;6.84;100.00
72465;BME280;60471;52.150;4.508;2024-03-02T01:01:44;99506.09;;;6.79;100.00
72465;BME280;60471;52.150;4.508;2024-03-02T01:04:10;99512.09;;;6.81;100.00
72465;BME280;60471;52.150;4.508;2024-03-02T01:06:36;99501.69;;;6.80;100.00
72465;BME280;60471;52.150;4.508;2024-03-02T01:09:02;99490.91;;;6.86;100.00
72465;BME280;60471;52.150;4.508;2024-03-02T01:11:29;99493.06;;;6.78;100.00
72465;BME280;60471;52.150;4.508;2024-03-02T01:13:55;99482.84;;;6.73;100.00
72465;BME280;60471;52.150;4.508;2024-03-02T01:16:22;99495.44;;;6.82;100.00
72465;BME280;60471;52.150;4.508;2024-03-02T01:18:48;99498.22;;;6.79;100.00
72465;BME280;60471;52.150;4.508;2024-03-02T01:21:14;99480.56;;;6.83;100.00
72465;BME280;60471;52.150;4.508;2024-03-02T01:23:41;99476.00;;;6.86;100.00
72465;BME280;60471;52.150;4.508;2024-03-02T01:26:07;99490.63;;;6.90;100.00
72465;BME280;60471;52.150;4.508;2024-03-02T01:28:33;99498.41;;;6.92;100.00
72465;BME280;60471;52.150;4.508;2024-03-02T01:30:59;99501.88;;;6.92;100.00
72465;BME280;60471;52.150;4.508;2024-03-02T01:33:27;99496.22;;;6.84;100.00
72465;BME280;60471;52.150;4.508;2024-03-02T01:35:54;99496.91;;;6.88;100.00
72465;BME280;60471;52.150;4.508;2024-03-02T01:38:20;99520.66;;;6.85;100.00
72465;BME280;60471;52.150;4.508;2024-03-02T01:40:46;99529.72;;;6.95;100.00
72465;BME280;60471;52.150;4.508;2024-03-02T01:43:12;99543.34;;;6.86;100.00
72465;BME280;60471;52.150;4.508;2024-03-02T01:45:39;99518.19;;;6.82;100.00
72465;BME280;60471;52.150;4.508;2024-03-02T01:48:06;99515.00;;;6.92;100.00
72465;BME280;60471;52.150;4.508;2024-03-02T01:50:33;99514.22;;;6.90;100.00
72465;BME280;60471;52.150;4.508;2024-03-02T01:53:01;99528.28;;;6.89;100.00
72465;BME280;60471;52.150;4.508;2024-03-02T01:55:30;99520.00;;;6.97;100.00
72465;BME280;60471;52.150;4.508;2024-03-02T01:57:57;99526.66;;;6.87;100.00
72465;BME280;60471;52.150;4.508;2024-03-02T02:00:24;99530.13;;;7.03;100.00
72465;BME280;60471;52.150;4.508;2024-03-02T02:02:52;99536.50;;;6.99;100.00
72465;BME280;60471;52.150;4.508;2024-03-02T02:05:19;99534.97;;;6.95;100.00
72465;BME280;60471;52.150;4.508;2024-03-02T02:07:45;99539.44;;;6.93;100.00
72465;BME280;60471;52.150;4.508;2024-03-02T02:10:11;99542.59;;;7.00;100.00
72465;BME280;60471;52.150;4.508;2024-03-02T02:12:38;99531.41;;;6.96;100.00
72465;BME280;60471;52.150;4.508;2024-03-02T02:15:21;99531.41;;;6.96;100.00
72465;BME280;60471;52.150;4.508;2024-03-02T02:17:52;99522.00;;;6.92;100.00
72465;BME280;60471;52.150;4.508;2024-03-02T02:20:19;99536.56;;;6.97;100.00
72465;BME280;60471;52.150;4.508;2024-03-02T02:23:04;99529.56;;;6.98;100.00
72465;BME280;60471;52.150;4.508;2024-03-02T02:25:35;99535.03;;;6.93;100.00
72465;BME280;60471;52.150;4.508;2024-03-02T02:28:01;99534.03;;;6.96;100.00
72465;BME280;60471;52.150;4.508;2024-03-02T02:30:30;99548.00;;;6.96;100.00
72465;BME280;60471;52.150;4.508;2024-03-02T02:32:58;99544.09;;;7.04;100.00
72465;BME280;60471;52.150;4.508;2024-03-02T02:35:24;99554.84;;;6.99;100.00
72465;BME280;60471;52.150;4.508;2024-03-02T02:37:52;99542.66;;;6.98;100.00
72465;BME280;60471;52.150;4.508;2024-03-02T02:40:20;99546.50;;;7.08;100.00
72465;BME280;60471;52.150;4.508;2024-03-02T02:42:47;99540.47;;;7.06;100.00
72465;BME280;60471;52.150;4.508;2024-03-02T02:45:13;99541.16;;;7.10;100.00
72465;BME280;60471;52.150;4.508;2024-03-02T02:47:41;99539.66;;;7.06;100.00
72465;BME280;60471;52.150;4.508;2024-03-02T02:50:08;99527.28;;;7.08;100.00
72465;BME280;60471;52.150;4.508;2024-03-02T02:52:37;99538.63;;;7.08;100.00
72465;BME280;60471;52.150;4.508;2024-03-02T02:55:07;99533.28;;;7.10;100.00
72465;BME280;60471;52.150;4.508;2024-03-02T02:57:36;99540.47;;;7.06;100.00
72465;BME280;60471;52.150;4.508;2024-03-02T03:00:06;99545.78;;;7.05;100.00
72465;BME280;60471;52.150;4.508;2024-03-02T03:02:40;99541.56;;;7.02;100.00
72465;BME280;60471;52.150;4.508;2024-03-02T03:05:12;99538.50;;;6.94;100.00
72465;BME280;60471;52.150;4.508;2024-03-02T03:07:40;99544.44;;;6.97;100.00
72465;BME280;60471;52.150;4.508;2024-03-02T03:10:07;99541.06;;;6.95;100.00
72465;BME280;60471;52.150;4.508;2024-03-02T03:12:34;99540.03;;;6.98;100.00
72465;BME280;60471;52.150;4.508;2024-03-02T03:15:02;99544.19;;;7.02;100.00
72465;BME280;60471;52.150;4.508;2024-03-02T03:17:30;99540.47;;;7.06;100.00
72465;BME280;60471;52.150;4.508;2024-03-02T03:19:56;99537.44;;;7.14;100.00
72465;BME280;60471;52.150;4.508;2024-03-02T03:22:23;99539.97;;;7.15;100.00
72465;BME280;60471;52.150;4.508;2024-03-02T03:24:49;99548.25;;;7.08;100.00
72465;BME280;60471;52.150;4.508;2024-03-02T03:27:15;99544.00;;;7.05;100.00
72465;BME280;60471;52.150;4.508;2024-03-02T03:29:41;99549.25;;;7.05;100.00
72465;BME280;60471;52.150;4.508;2024-03-02T03:32:08;99543.25;;;7.03;100.00
72465;BME280;60471;52.150;4.508;2024-03-02T03:34:34;99548.41;;;7.05;100.00
72465;BME280;60471;52.150;4.508;2024-03-02T03:37:00;99554.28;;;7.10;100.00
72465;BME280;60471;52.150;4.508;2024-03-02T03:39:27;99553.66;;;7.05;100.00
72465;BME280;60471;52.150;4.508;2024-03-02T03:41:54;99554.28;;;7.10;100.00
72465;BME280;60471;52.150;4.508;2024-03-02T03:44:20;99552.75;;;7.06;100.00
72465;BME280;60471;52.150;4.508;2024-03-02T03:46:46;99553.50;;;7.08;100.00
72465;BME280;60471;52.150;4.508;2024-03-02T03:49:13;99555.22;;;7.09;100.00
72465;BME280;60471;52.150;4.508;2024-03-02T03:51:39;99554.72;;;7.18;100.00
72465;BME280;60471;52.150;4.508;2024-03-02T03:54:05;99553.06;;;7.15;100.00
72465;BME280;60471;52.150;4.508;2024-03-02T03:56:32;99560.03;;;7.16;100.00
72465;BME280;60471;52.150;4.508;2024-03-02T03:58:58;99558.00;;;7.21;100.00
72465;BME280;60471;52.150;4.508;2024-03-02T04:01:25;99568.91;;;7.14;100.00
72465;BME280;60471;52.150;4.508;2024-03-02T04:03:51;99558.66;;;7.25;100.00
72465;BME280;60471;52.150;4.508;2024-03-02T04:06:18;99558.59;;;7.11;100.00
72465;BME280;60471;52.150;4.508;2024-03-02T04:08:44;99571.53;;;7.14;100.00
72465;BME280;60471;52.150;4.508;2024-03-02T04:11:10;99570.38;;;7.19;100.00
72465;BME280;60471;52.150;4.508;2024-03-02T04:13:36;99570.28;;;7.21;100.00
72465;BME280;60471;52.150;4.508;2024-03-02T04:16:03;99571.22;;;7.20;100.00
72465;BME280;60471;52.150;4.508;2024-03-02T04:18:31;99573.75;;;7.21;100.00
72465;BME280;60471;52.150;4.508;2024-03-02T04:20:58;99572.81;;;7.22;100.00
72465;BME280;60471;52.150;4.508;2024-03-02T04:23:27;99571.13;;;7.21;100.00
72465;BME280;60471;52.150;4.508;2024-03-02T04:25:53;99581.25;;;7.12;100.00
72465;BME280;60471;52.150;4.508;2024-03-02T04:28:19;99589.31;;;7.09;100.00
72465;BME280;60471;52.150;4.508;2024-03-02T04:30:46;99574.50;;;7.08;100.00
72465;BME280;60471;52.150;4.508;2024-03-02T04:33:12;99575.34;;;7.08;100.00
72465;BME280;60471;52.150;4.508;2024-03-02T04:35:38;99577.03;;;7.09;100.00
72465;BME280;60471;52.150;4.508;2024-03-02T04:38:04;99580.59;;;7.08;100.00
72465;BME280;60471;52.150;4.508;2024-03-02T04:40:30;99574.72;;;7.03;100.00
72465;BME280;60471;52.150;4.508;2024-03-02T04:42:58;99581.91;;;7.00;100.00
72465;BME280;60471;52.150;4.508;2024-03-02T04:45:25;99585.38;;;7.00;100.00
72465;BME280;60471;52.150;4.508;2024-03-02T04:47:51;99583.06;;;6.94;100.00
72465;BME280;60471;52.150;4.508;2024-03-02T04:50:17;99582.50;;;6.89;100.00
72465;BME280;60471;52.150;4.508;2024-03-02T04:52:43;99585.03;;;6.90;100.00
72465;BME280;60471;52.150;4.508;2024-03-02T04:55:09;99598.31;;;6.87;100.00
72465;BME280;60471;52.150;4.508;2024-03-02T04:57:43;99607.47;;;6.96;100.00
72465;BME280;60471;52.150;4.508;2024-03-02T05:00:10;99606.09;;;6.89;100.00
72465;BME280;60471;52.150;4.508;2024-03-02T05:02:36;99603.91;;;6.97;100.00
72465;BME280;60471;52.150;4.508;2024-03-02T05:05:03;99614.53;;;6.94;100.00
72465;BME280;60471;52.150;4.508;2024-03-02T05:07:29;99602.13;;;6.97;100.00
72465;BME280;60471;52.150;4.508;2024-03-02T05:09:56;99608.81;;;7.03;100.00
72465;BME280;60471;52.150;4.508;2024-03-02T05:12:22;99601.88;;;7.02;100.00
72465;BME280;60471;52.150;4.508;2024-03-02T05:15:07;99606.81;;;7.08;100.00
72465;BME280;60471;52.150;4.508;2024-03-02T05:17:34;99610.50;;;7.04;100.00
72465;BME280;60471;52.150;4.508;2024-03-02T05:20:00;99613.22;;;7.03;100.00
72465;BME280;60471;52.150;4.508;2024-03-02T05:22:26;99614.50;;;6.95;100.00
72465;BME280;60471;52.150;4.508;2024-03-02T05:24:52;99617.44;;;7.05;100.00
72465;BME280;60471;52.150;4.508;2024-03-02T05:27:18;99625.56;;;7.01;100.00
72465;BME280;60471;52.150;4.508;2024-03-02T05:29:44;99620.00;;;7.07;100.00
72465;BME280;60471;52.150;4.508;2024-03-02T05:32:11;99625.09;;;7.10;100.00
72465;BME280;60471;52.150;4.508;2024-03-02T05:34:37;99628.47;;;7.12;100.00
72465;BME280;60471;52.150;4.508;2024-03-02T05:37:03;99628.66;;;7.09;100.00
72465;BME280;60471;52.150;4.508;2024-03-02T05:39:29;99625.84;;;7.12;100.00
72465;BME280;60471;52.150;4.508;2024-03-02T05:41:55;99633.03;;;7.08;100.00
72465;BME280;60471;52.150;4.508;2024-03-02T05:44:22;99638.56;;;7.19;100.00
72465;BME280;60471;52.150;4.508;2024-03-02T05:46:48;99638.66;;;7.18;100.00
72465;BME280;60471;52.150;4.508;2024-03-02T05:49:14;99631.00;;;7.13;100.00
72465;BME280;60471;52.150;4.508;2024-03-02T05:51:40;99631.00;;;7.13;100.00
72465;BME280;60471;52.150;4.508;2024-03-02T05:54:07;99627.53;;;7.13;100.00
72465;BME280;60471;52.150;4.508;2024-03-02T05:56:33;99632.28;;;7.06;100.00
72465;BME280;60471;52.150;4.508;2024-03-02T05:58:59;99631.63;;;6.85;100.00
72465;BME280;60471;52.150;4.508;2024-03-02T06:01:45;99629.22;;;6.81;100.00
72465;BME280;60471;52.150;4.508;2024-03-02T06:04:13;99630.78;;;6.85;100.00
72465;BME280;60471;52.150;4.508;2024-03-02T06:06:40;99626.47;;;6.84;100.00
72465;BME280;60471;52.150;4.508;2024-03-02T06:09:06;99630.25;;;6.78;100.00
72465;BME280;60471;52.150;4.508;2024-03-02T06:11:37;99633.78;;;6.77;100.00
72465;BME280;60471;52.150;4.508;2024-03-02T06:14:07;99629.41;;;6.78;100.00
72465;BME280;60471;52.150;4.508;2024-03-02T06:16:34;99636.06;;;6.83;100.00
72465;BME280;60471;52.150;4.508;2024-03-02T06:19:01;99638.69;;;6.83;100.00
72465;BME280;60471;52.150;4.508;2024-03-02T06:21:28;99640.72;;;6.78;100.00
72465;BME280;60471;52.150;4.508;2024-03-02T06:23:54;99645.97;;;6.78;100.00
72465;BME280;60471;52.150;4.508;2024-03-02T06:26:20;99640.66;;;6.80;100.00
72465;BME280;60471;52.150;4.508;2024-03-02T06:28:46;99642.19;;;6.84;100.00
72465;BME280;60471;52.150;4.508;2024-03-02T06:31:13;99648.03;;;6.89;100.00
72465;BME280;60471;52.150;4.508;2024-03-02T06:33:39;99655.81;;;6.90;100.00
72465;BME280;60471;52.150;4.508;2024-03-02T06:36:06;99652.72;;;7.00;100.00
72465;BME280;60471;52.150;4.508;2024-03-02T06:38:35;99656.03;;;7.03;100.00
72465;BME280;60471;52.150;4.508;2024-03-02T06:41:01;99651.50;;;6.89;100.00
72465;BME280;60471;52.150;4.508;2024-03-02T06:43:28;99652.66;;;7.01;100.00
72465;BME280;60471;52.150;4.508;2024-03-02T06:45:54;99653.19;;;7.08;100.00
72465;BME280;60471;52.150;4.508;2024-03-02T06:48:20;99654.88;;;7.09;100.00
72465;BME280;60471;52.150;4.508;2024-03-02T06:50:47;99653.94;;;7.10;100.00
72465;BME280;60471;52.150;4.508;2024-03-02T06:53:14;99652.69;;;7.17;100.00
72465;BME280;60471;52.150;4.508;2024-03-02T06:55:46;99665.03;;;7.15;100.00
72465;BME280;60471;52.150;4.508;2024-03-02T06:58:15;99663.50;;;7.11;100.00
72465;BME280;60471;52.150;4.508;2024-03-02T07:00:42;99672.47;;;7.07;100.00
72465;BME280;60471;52.150;4.508;2024-03-02T07:03:10;99670.63;;;7.09;100.00
72465;BME280;60471;52.150;4.508;2024-03-02T07:05:36;99666.59;;;7.02;100.00
72465;BME280;60471;52.150;4.508;2024-03-02T07:08:02;99674.31;;;7.05;100.00
72465;BME280;60471;52.150;4.508;2024-03-02T07:10:30;99683.81;;;7.07;100.00
72465;BME280;60471;52.150;4.508;2024-03-02T07:12:57;99679.41;;;7.08;100.00
72465;BME280;60471;52.150;4.508;2024-03-02T07:15:23;99684.94;;;7.19;100.00
72465;BME280;60471;52.150;4.508;2024-03-02T07:18:08;99692.91;;;7.17;100.00
72465;BME280;60471;52.150;4.508;2024-03-02T07:20:34;99692.66;;;7.22;100.00
72465;BME280;60471;52.150;4.508;2024-03-02T07:23:00;99687.13;;;7.26;100.00
72465;BME280;60471;52.150;4.508;2024-03-02T07:25:26;99682.97;;;7.40;100.00
72465;BME280;60471;52.150;4.508;2024-03-02T07:27:53;99691.06;;;7.35;100.00
72465;BME280;60471;52.150;4.508;2024-03-02T07:30:20;99693.38;;;7.41;100.00
72465;BME280;60471;52.150;4.508;2024-03-02T07:32:46;99693.41;;;7.24;100.00
72465;BME280;60471;52.150;4.508;2024-03-02T07:35:12;99705.75;;;7.39;100.00
72465;BME280;60471;52.150;4.508;2024-03-02T07:37:42;99689.81;;;7.42;100.00
72465;BME280;60471;52.150;4.508;2024-03-02T07:40:09;99707.94;;;7.47;100.00
72465;BME280;60471;52.150;4.508;2024-03-02T07:42:40;99698.50;;;7.60;100.00
72465;BME280;60471;52.150;4.508;2024-03-02T07:45:06;99709.00;;;7.60;100.00
72465;BME280;60471;52.150;4.508;2024-03-02T07:47:34;99705.00;;;7.69;100.00
72465;BME280;60471;52.150;4.508;2024-03-02T07:50:01;99706.13;;;7.80;100.00
72465;BME280;60471;52.150;4.508;2024-03-02T07:52:27;99706.56;;;7.89;100.00
72465;BME280;60471;52.150;4.508;2024-03-02T07:54:53;99706.47;;;7.90;100.00
72465;BME280;60471;52.150;4.508;2024-03-02T07:57:20;99709.19;;;8.04;100.00
72465;BME280;60471;52.150;4.508;2024-03-02T07:59:46;99709.78;;;8.09;100.00
72465;BME280;60471;52.150;4.508;2024-03-02T08:02:13;99711.56;;;7.93;100.00
72465;BME280;60471;52.150;4.508;2024-03-02T08:04:39;99710.28;;;7.84;100.00
72465;BME280;60471;52.150;4.508;2024-03-02T08:07:06;99712.22;;;7.65;100.00
72465;BME280;60471;52.150;4.508;2024-03-02T08:09:32;99707.44;;;7.56;100.00
72465;BME280;60471;52.150;4.508;2024-03-02T08:11:58;99712.47;;;7.76;100.00
72465;BME280;60471;52.150;4.508;2024-03-02T08:14:24;99707.53;;;7.70;100.00
72465;BME280;60471;52.150;4.508;2024-03-02T08:16:51;99700.53;;;7.71;100.00
72465;BME280;60471;52.150;4.508;2024-03-02T08:19:17;99704.19;;;7.84;100.00
72465;BME280;60471;52.150;4.508;2024-03-02T08:21:44;99711.22;;;7.99;100.00
72465;BME280;60471;52.150;4.508;2024-03-02T08:24:10;99719.84;;;8.01;100.00
72465;BME280;60471;52.150;4.508;2024-03-02T08:26:36;99713.84;;;7.99;100.00
72465;BME280;60471;52.150;4.508;2024-03-02T08:29:03;99709.03;;;8.07;100.00
72465;BME280;60471;52.150;4.508;2024-03-02T08:31:30;99712.22;;;7.97;100.00
72465;BME280;60471;52.150;4.508;2024-03-02T08:33:56;99710.34;;;8.30;100.00
72465;BME280;60471;52.150;4.508;2024-03-02T08:36:26;99718.09;;;8.18;100.00
72465;BME280;60471;52.150;4.508;2024-03-02T08:38:52;99709.94;;;8.22;100.00
72465;BME280;60471;52.150;4.508;2024-03-02T08:41:18;99719.03;;;8.17;100.00
72465;BME280;60471;52.150;4.508;2024-03-02T08:43:45;99716.13;;;8.05;100.00
72465;BME280;60471;52.150;4.508;2024-03-02T08:46:11;99715.19;;;7.91;100.00
72465;BME280;60471;52.150;4.508;2024-03-02T08:48:37;99713.84;;;7.99;100.00
72465;BME280;60471;52.150;4.508;2024-03-02T08:51:03;99717.31;;;8.16;100.00
72465;BME280;60471;52.150;4.508;2024-03-02T08:53:32;99723.66;;;8.11;100.00
72465;BME280;60471;52.150;4.508;2024-03-02T08:55:58;99717.66;;;8.25;100.00
72465;BME280;60471;52.150;4.508;2024-03-02T08:58:24;99725.69;;;8.22;100.00
72465;BME280;60471;52.150;4.508;2024-03-02T09:00:50;99722.91;;;8.09;100.00
72465;BME280;60471;52.150;4.508;2024-03-02T09:03:16;99725.22;;;8.16;100.00
72465;BME280;60471;52.150;4.508;2024-03-02T09:05:43;99721.03;;;8.43;100.00
72465;BME280;60471;52.150;4.508;2024-03-02T09:08:09;99722.59;;;8.47;100.00
72465;BME280;60471;52.150;4.508;2024-03-02T09:10:35;99721.78;;;8.61;100.00
72465;BME280;60471;52.150;4.508;2024-03-02T09:13:02;99730.47;;;8.47;100.00
72465;BME280;60471;52.150;4.508;2024-03-02T09:15:28;99730.00;;;8.55;100.00
72465;BME280;60471;52.150;4.508;2024-03-02T09:17:54;99719.59;;;8.53;100.00
72465;BME280;60471;52.150;4.508;2024-03-02T09:20:20;99731.56;;;8.59;100.00
72465;BME280;60471;52.150;4.508;2024-03-02T09:22:47;99723.50;;;8.46;100.00
72465;BME280;60471;52.150;4.508;2024-03-02T09:25:14;99728.81;;;8.60;100.00
72465;BME280;60471;52.150;4.508;2024-03-02T09:27:41;99718.66;;;8.54;100.00
72465;BME280;60471;52.150;4.508;2024-03-02T09:30:09;99717.84;;;8.68;100.00
72465;BME280;60471;52.150;4.508;2024-03-02T09:32:37;99731.38;;;8.62;100.00
72465;BME280;60471;52.150;4.508;2024-03-02T09:35:04;99737.03;;;8.70;100.00
72465;BME280;60471;52.150;4.508;2024-03-02T09:37:30;99750.03;;;8.87;100.00
72465;BME280;60471;52.150;4.508;2024-03-02T09:39:56;99751.38;;;8.94;100.00
72465;BME280;60471;52.150;4.508;2024-03-02T09:42:23;99731.25;;;9.23;100.00
72465;BME280;60471;52.150;4.508;2024-03-02T09:44:50;99740.34;;;9.18;100.00
72465;BME280;60471;52.150;4.508;2024-03-02T09:47:16;99748.34;;;9.30;100.00
72465;BME280;60471;52.150;4.508;2024-03-02T09:49:42;99735.88;;;9.77;100.00
72465;BME280;60471;52.150;4.508;2024-03-02T09:52:10;99731.69;;;11.35;100.00
72465;BME280;60471;52.150;4.508;2024-03-02T09:54:37;99734.97;;;12.50;100.00
72465;BME280;60471;52.150;4.508;2024-03-02T09:57:03;99740.50;;;12.70;100.00
72465;BME280;60471;52.150;4.508;2024-03-02T09:59:30;99732.78;;;13.93;100.00
72465;BME280;60471;52.150;4.508;2024-03-02T10:02:00;99724.81;;;14.05;100.00
72465;BME280;60471;52.150;4.508;2024-03-02T10:04:28;99726.75;;;14.03;100.00
72465;BME280;60471;52.150;4.508;2024-03-02T10:07:18;99743.84;;;13.54;100.00
72465;BME280;60471;52.150;4.508;2024-03-02T10:09:46;99739.88;;;13.37;100.00
72465;BME280;60471;52.150;4.508;2024-03-02T10:12:15;99739.53;;;13.86;100.00
72465;BME280;60471;52.150;4.508;2024-03-02T10:14:42;99743.28;;;13.84;100.00
72465;BME280;60471;52.150;4.508;2024-03-02T10:17:12;99731.94;;;13.59;100.00
72465;BME280;60471;52.150;4.508;2024-03-02T10:19:40;99726.97;;;13.32;100.00
72465;BME280;60471;52.150;4.508;2024-03-02T10:22:08;99734.09;;;13.54;100.00
72465;BME280;60471;52.150;4.508;2024-03-02T10:24:39;99729.63;;;13.88;100.00
72465;BME280;60471;52.150;4.508;2024-03-02T10:27:15;99724.72;;;13.84;100.00
72465;BME280;60471;52.150;4.508;2024-03-02T10:29:46;99712.28;;;13.84;100.00
72465;BME280;60471;52.150;4.508;2024-03-02T10:32:12;99713.50;;;13.58;100.00
72465;BME280;60471;52.150;4.508;2024-03-02T10:34:45;99708.97;;;14.26;100.00
72465;BME280;60471;52.150;4.508;2024-03-02T10:37:14;99710.84;;;13.91;100.00
72465;BME280;60471;52.150;4.508;2024-03-02T10:39:41;99697.56;;;14.14;100.00
72465;BME280;60471;52.150;4.508;2024-03-02T10:42:07;99716.19;;;14.35;100.00
72465;BME280;60471;52.150;4.508;2024-03-02T10:44:34;99727.47;;;13.49;100.00
72465;BME280;60471;52.150;4.508;2024-03-02T10:47:02;99705.28;;;14.06;100.00
72465;BME280;60471;52.150;4.508;2024-03-02T10:49:30;99708.94;;;14.37;100.00
72465;BME280;60471;52.150;4.508;2024-03-02T10:52:01;99708.41;;;15.07;96.98
72465;BME280;60471;52.150;4.508;2024-03-02T10:54:28;99694.91;;;15.41;89.56
72465;BME280;60471;52.150;4.508;2024-03-02T10:57:03;99699.28;;;15.21;85.79
72465;BME280;60471;52.150;4.508;2024-03-02T10:59:35;99705.63;;;14.67;98.22
72465;BME280;60471;52.150;4.508;2024-03-02T11:02:04;99696.03;;;13.55;100.00
72465;BME280;60471;52.150;4.508;2024-03-02T11:04:34;99701.72;;;15.54;97.61
72465;BME280;60471;52.150;4.508;2024-03-02T11:07:10;99710.00;;;15.91;83.22
72465;BME280;60471;52.150;4.508;2024-03-02T11:09:59;99694.34;;;15.16;81.54
72465;BME280;60471;52.150;4.508;2024-03-02T11:12:48;99720.06;;;16.47;74.28
72465;BME280;60471;52.150;4.508;2024-03-02T11:15:24;99682.09;;;17.60;68.96
72465;BME280;60471;52.150;4.508;2024-03-02T11:17:53;99682.28;;;18.13;61.16
72465;BME280;60471;52.150;4.508;2024-03-02T11:20:21;99701.19;;;16.99;63.79
72465;BME280;60471;52.150;4.508;2024-03-02T11:22:47;99690.41;;;18.75;58.58
72465;BME280;60471;52.150;4.508;2024-03-02T11:25:25;99693.63;;;16.94;61.26
72465;BME280;60471;52.150;4.508;2024-03-02T11:33:11;99695.25;;;16.47;66.26
72465;BME280;60471;52.150;4.508;2024-03-02T11:35:41;99693.59;;;17.70;61.60
72465;BME280;60471;52.150;4.508;2024-03-02T11:38:10;99690.50;;;16.99;65.75
72465;BME280;60471;52.150;4.508;2024-03-02T11:40:39;99684.84;;;17.31;64.01
72465;BME280;60471;52.150;4.508;2024-03-02T11:43:06;99691.66;;;18.17;57.19
72465;BME280;60471;52.150;4.508;2024-03-02T11:45:33;99684.38;;;19.17;54.68
72465;BME280;60471;52.150;4.508;2024-03-02T11:48:06;99677.72;;;18.59;51.56
72465;BME280;60471;52.150;4.508;2024-03-02T11:50:40;99670.94;;;19.08;51.03
72465;BME280;60471;52.150;4.508;2024-03-02T11:53:09;99671.94;;;19.07;48.87
72465;BME280;60471;52.150;4.508;2024-03-02T11:55:40;99666.81;;;18.35;51.33
72465;BME280;60471;52.150;4.508;2024-03-02T11:58:07;99668.03;;;19.46;50.89
72465;BME280;60471;52.150;4.508;2024-03-02T12:00:33;99669.00;;;20.13;47.90
72465;BME280;60471;52.150;4.508;2024-03-02T12:05:28;99658.13;;;19.12;49.04
72465;BME280;60471;52.150;4.508;2024-03-02T12:08:04;99655.53;;;20.88;46.59
72465;BME280;60471;52.150;4.508;2024-03-02T12:10:33;99663.84;;;17.92;49.67
72465;BME280;60471;52.150;4.508;2024-03-02T12:13:02;99659.66;;;18.71;49.18
72465;BME280;60471;52.150;4.508;2024-03-02T12:15:31;99652.91;;;17.86;47.81
72465;BME280;60471;52.150;4.508;2024-03-02T12:18:03;99644.31;;;17.55;51.28
72465;BME280;60471;52.150;4.508;2024-03-02T12:20:31;99634.19;;;18.67;48.90
72465;BME280;60471;52.150;4.508;2024-03-02T12:22:59;99643.94;;;18.68;47.27
72465;BME280;60471;52.150;4.508;2024-03-02T12:25:29;99634.41;;;19.51;45.91
72465;BME280;60471;52.150;4.508;2024-03-02T12:27:59;99623.28;;;18.60;45.84
72465;BME280;60471;52.150;4.508;2024-03-02T12:30:29;99625.00;;;19.65;46.28
72465;BME280;60471;52.150;4.508;2024-03-02T12:32:56;99629.75;;;19.95;45.03
72465;BME280;60471;52.150;4.508;2024-03-02T12:35:24;99631.97;;;18.62;46.83
72465;BME280;60471;52.150;4.508;2024-03-02T12:37:52;99633.63;;;17.27;51.54
72465;BME280;60471;52.150;4.508;2024-03-02T12:40:20;99634.72;;;17.34;55.21
72465;BME280;60471;52.150;4.508;2024-03-02T12:42:48;99620.69;;;16.66;57.18
72465;BME280;60471;52.150;4.508;2024-03-02T12:45:16;99627.31;;;18.11;52.85
72465;BME280;60471;52.150;4.508;2024-03-02T12:47:49;99628.66;;;19.04;49.69
72465;BME280;60471;52.150;4.508;2024-03-02T12:50:17;99629.13;;;20.02;48.01
72465;BME280;60471;52.150;4.508;2024-03-02T12:52:44;99632.31;;;19.63;48.04
72465;BME280;60471;52.150;4.508;2024-03-02T12:55:17;99619.31;;;20.92;45.17
72465;BME280;60471;52.150;4.508;2024-03-02T12:57:43;99615.16;;;20.73;44.09
72465;BME280;60471;52.150;4.508;2024-03-02T13:00:10;99623.38;;;19.80;45.71
72465;BME280;60471;52.150;4.508;2024-03-02T13:02:42;99611.34;;;21.86;43.26
72465;BME280;60471;52.150;4.508;2024-03-02T13:05:08;99622.97;;;21.70;42.47
72465;BME280;60471;52.150;4.508;2024-03-02T13:07:40;99616.19;;;19.13;45.30
72465;BME280;60471;52.150;4.508;2024-03-02T13:10:12;99602.81;;;19.89;46.55
72465;BME280;60471;52.150;4.508;2024-03-02T13:12:39;99598.03;;;20.33;44.13
72465;BME280;60471;52.150;4.508;2024-03-02T13:15:05;99600.03;;;20.15;44.01
72465;BME280;60471;52.150;4.508;2024-03-02T13:17:34;99598.22;;;20.32;44.65